createdAt,value
2022-11-20T00:01:55.094Z,7.57
2022-11-20T00:04:25.162Z,7.68
2022-11-20T00:06:55.536Z,7.47
2022-11-20T00:09:26.304Z,7.03
2022-11-20T00:11:58.533Z,7.80
2022-11-20T00:14:27.174Z,7.10
2022-11-20T00:16:59.483Z,6.93
2022-11-20T00:19:28.575Z,6.88
2022-11-20T00:21:59.748Z,6.88
2022-11-20T00:24:29.650Z,5.97
2022-11-20T00:26:59.688Z,7.15
2022-11-20T00:29:30.188Z,6.47
2022-11-20T00:32:00.192Z,6.93
2022-11-20T00:34:30.533Z,7.50
2022-11-20T00:37:01.162Z,7.93
2022-11-20T00:39:33.833Z,10.95
2022-11-20T00:42:02.417Z,10.60
2022-11-20T00:44:32.518Z,10.30
2022-11-20T00:47:02.362Z,11.43
2022-11-20T00:49:36.746Z,11.68
2022-11-20T00:52:06.918Z,11.43
2022-11-20T00:54:36.881Z,11.10
2022-11-20T00:57:10.151Z,10.93
2022-11-20T00:59:39.009Z,10.27
2022-11-20T01:02:07.416Z,11.07
2022-11-20T01:04:37.303Z,10.80
2022-11-20T01:07:07.225Z,10.95
2022-11-20T01:09:37.224Z,11.10
2022-11-20T01:12:06.513Z,10.15
2022-11-20T01:14:37.048Z,10.35
2022-11-20T01:17:07.830Z,10.23
2022-11-20T01:19:37.409Z,11.00
2022-11-20T01:22:05.620Z,10.13
2022-11-20T01:24:33.458Z,10.90
2022-11-20T01:27:01.158Z,10.15
2022-11-20T01:29:28.906Z,10.23
2022-11-20T01:31:56.547Z,10.52
2022-11-20T01:34:24.471Z,10.60
2022-11-20T01:36:52.647Z,10.55
2022-11-20T01:39:26.092Z,9.88
2022-11-20T01:42:11.984Z,10.60
2022-11-20T01:44:56.238Z,11.02
2022-11-20T01:47:36.633Z,9.23
2022-11-20T01:50:16.053Z,10.27
2022-11-20T01:52:48.640Z,10.18
2022-11-20T01:55:22.517Z,10.23
2022-11-20T01:57:50.415Z,10.20
2022-11-20T02:00:20.269Z,10.65
2022-11-20T02:02:56.772Z,11.60
2022-11-20T02:05:33.963Z,10.55
2022-11-20T02:08:01.898Z,10.38
2022-11-20T02:10:33.156Z,10.85
2022-11-20T02:13:16.247Z,10.57
2022-11-20T02:15:44.505Z,10.55
2022-11-20T02:18:14.775Z,9.90
2022-11-20T02:20:46.074Z,9.65
2022-11-20T02:23:31.954Z,8.63
2022-11-20T02:26:02.099Z,9.98
2022-11-20T02:28:29.999Z,9.02
2022-11-20T02:30:57.864Z,10.07
2022-11-20T02:33:25.488Z,9.13
2022-11-20T02:35:53.295Z,9.02
2022-11-20T02:38:21.240Z,8.95
2022-11-20T02:40:54.126Z,8.52
2022-11-20T02:43:23.142Z,9.52
2022-11-20T02:45:50.784Z,9.02
2022-11-20T02:48:18.448Z,8.55
2022-11-20T02:50:46.239Z,8.70
2022-11-20T02:53:14.020Z,9.07
2022-11-20T02:55:41.690Z,8.88
2022-11-20T02:58:09.511Z,8.18
2022-11-20T03:00:37.364Z,8.65
2022-11-20T03:03:05.047Z,8.65
2022-11-20T03:05:32.785Z,8.68
2022-11-20T03:08:00.473Z,8.32
2022-11-20T03:10:28.238Z,8.82
2022-11-20T03:12:56.641Z,9.48
2022-11-20T03:15:27.214Z,8.45
2022-11-20T03:17:56.386Z,8.80
2022-11-20T03:20:24.283Z,8.40
2022-11-20T03:22:52.203Z,8.65
2022-11-20T03:25:19.851Z,8.57
2022-11-20T03:27:47.484Z,8.45
2022-11-20T03:30:16.352Z,7.90
2022-11-20T03:32:44.167Z,8.65
2022-11-20T03:35:12.095Z,8.50
2022-11-20T03:37:39.766Z,8.90
2022-11-20T03:40:07.681Z,8.13
2022-11-20T03:42:50.762Z,8.75
2022-11-20T03:45:19.289Z,8.55
2022-11-20T03:47:47.226Z,8.20
2022-11-20T03:50:15.121Z,7.95
2022-11-20T03:52:43.120Z,8.70
2022-11-20T03:55:10.829Z,8.73
2022-11-20T03:57:38.652Z,8.45
2022-11-20T04:00:06.750Z,9.32
2022-11-20T04:02:34.375Z,7.93
2022-11-20T04:05:02.191Z,8.35
2022-11-20T04:07:31.336Z,8.82
2022-11-20T04:09:59.062Z,9.45
2022-11-20T04:12:26.485Z,8.80
2022-11-20T04:14:54.178Z,9.02
2022-11-20T04:17:21.908Z,8.85
2022-11-20T04:19:49.488Z,8.18
2022-11-20T04:22:17.386Z,9.48
2022-11-20T04:24:45.496Z,9.57
2022-11-20T04:27:13.624Z,8.77
2022-11-20T04:29:41.262Z,9.50
2022-11-20T04:32:09.000Z,8.75
2022-11-20T04:34:36.687Z,10.00
2022-11-20T04:37:04.304Z,9.07
2022-11-20T04:39:31.924Z,9.52
2022-11-20T04:42:15.181Z,8.48
2022-11-20T04:44:43.157Z,8.98
2022-11-20T04:47:10.792Z,8.68
2022-11-20T04:49:38.448Z,9.30
2022-11-20T04:52:06.368Z,9.52
2022-11-20T04:54:34.064Z,9.52
2022-11-20T04:57:01.772Z,9.23
2022-11-20T04:59:29.413Z,9.35
2022-11-20T05:01:57.629Z,10.10
2022-11-20T05:04:25.318Z,9.35
2022-11-20T05:06:52.901Z,9.63
2022-11-20T05:09:21.008Z,9.77
2022-11-20T05:11:51.491Z,9.45
2022-11-20T05:14:20.046Z,9.27
2022-11-20T05:16:48.106Z,10.30
2022-11-20T05:19:15.763Z,9.77
2022-11-20T05:21:43.554Z,9.05
2022-11-20T05:24:11.447Z,9.65
2022-11-20T05:26:39.098Z,10.07
2022-11-20T05:29:07.626Z,9.25
2022-11-20T05:31:35.678Z,10.00
2022-11-20T05:34:03.521Z,9.57
2022-11-20T05:36:32.157Z,9.40
2022-11-20T05:39:01.747Z,9.50
2022-11-20T05:41:30.228Z,10.15
2022-11-20T05:43:58.664Z,9.13
2022-11-20T05:46:28.926Z,9.65
2022-11-20T05:48:58.124Z,9.68
2022-11-20T05:51:27.460Z,10.20
2022-11-20T05:53:56.518Z,9.75
2022-11-20T05:56:24.909Z,10.55
2022-11-20T05:58:52.792Z,9.32
2022-11-20T06:01:23.864Z,9.45
2022-11-20T06:03:52.186Z,10.23
2022-11-20T06:06:20.720Z,10.07
2022-11-20T06:08:49.242Z,10.40
2022-11-20T06:11:17.900Z,10.48
2022-11-20T06:13:46.672Z,9.25
2022-11-20T06:16:16.904Z,9.77
2022-11-20T06:18:44.520Z,9.32
2022-11-20T06:21:16.059Z,9.23
2022-11-20T06:23:43.882Z,9.07
2022-11-20T06:26:17.898Z,9.20
2022-11-20T06:28:47.251Z,7.93
2022-11-20T06:31:17.882Z,8.75
2022-11-20T06:33:49.164Z,7.38
2022-11-20T06:36:22.887Z,7.70
2022-11-20T06:38:53.029Z,8.20
2022-11-20T06:41:25.127Z,8.38
2022-11-20T06:43:55.798Z,7.63
2022-11-20T06:46:25.838Z,7.93
2022-11-20T06:48:57.257Z,8.20
2022-11-20T06:51:26.302Z,8.27
2022-11-20T06:53:58.146Z,8.68
2022-11-20T06:56:28.235Z,9.07
2022-11-20T06:58:58.074Z,7.55
2022-11-20T07:01:26.007Z,8.52
2022-11-20T07:03:54.671Z,8.32
2022-11-20T07:06:22.701Z,8.60
2022-11-20T07:08:52.836Z,8.27
2022-11-20T07:11:20.523Z,8.32
2022-11-20T07:13:48.254Z,9.25
2022-11-20T07:16:16.129Z,9.07
2022-11-20T07:18:50.490Z,9.38
2022-11-20T07:21:19.436Z,9.00
2022-11-20T07:23:47.182Z,8.45
2022-11-20T07:26:14.915Z,9.27
2022-11-20T07:28:46.372Z,8.88
2022-11-20T07:31:18.813Z,10.43
2022-11-20T07:33:47.720Z,10.20
2022-11-20T07:36:15.432Z,9.55
2022-11-20T07:38:43.101Z,9.75
2022-11-20T07:41:10.811Z,9.35
2022-11-20T07:43:41.271Z,9.80
2022-11-20T07:46:09.543Z,9.85
2022-11-20T07:48:37.405Z,10.52
2022-11-20T07:51:05.134Z,10.20
2022-11-20T07:53:32.808Z,10.52
2022-11-20T07:56:02.412Z,10.63
2022-11-20T07:58:31.367Z,11.25
2022-11-20T08:00:59.131Z,10.55
2022-11-20T08:03:26.886Z,10.52
2022-11-20T08:05:54.554Z,10.35
2022-11-20T08:08:22.757Z,10.88
2022-11-20T08:10:51.528Z,11.35
2022-11-20T08:13:34.804Z,10.93
2022-11-20T08:16:03.768Z,10.13
2022-11-20T08:18:34.505Z,10.68
2022-11-20T08:21:07.158Z,11.68
2022-11-20T08:23:34.978Z,11.60
2022-11-20T08:26:02.757Z,10.90
2022-11-20T08:28:30.444Z,10.93
2022-11-20T08:31:02.133Z,10.73
2022-11-20T08:33:30.958Z,11.48
2022-11-20T08:36:03.293Z,11.63
2022-11-20T08:38:31.312Z,12.32
2022-11-20T08:41:19.684Z,11.63
2022-11-20T08:43:47.326Z,10.90
2022-11-20T08:46:16.443Z,11.32
2022-11-20T08:48:46.243Z,11.40
2022-11-20T08:51:16.803Z,11.77
2022-11-20T08:53:45.283Z,11.15
2022-11-20T08:56:13.590Z,11.80
2022-11-20T08:59:10.298Z,12.23
2022-11-20T09:01:35.207Z,11.50
2022-11-20T09:04:06.205Z,12.90
2022-11-20T09:06:36.563Z,12.57
2022-11-20T09:09:07.971Z,13.27
2022-11-20T09:11:38.159Z,12.68
2022-11-20T09:14:06.408Z,17.98
2022-11-20T09:16:36.076Z,19.08
2022-11-20T09:19:35.101Z,17.88
2022-11-20T09:21:59.508Z,16.17
2022-11-20T09:24:29.111Z,15.80
2022-11-20T09:26:57.704Z,16.45
2022-11-20T09:29:25.514Z,16.52
2022-11-20T09:31:53.991Z,15.80
2022-11-20T09:34:24.183Z,15.57
2022-11-20T09:36:52.857Z,16.92
2022-11-20T09:39:20.970Z,16.88
2022-11-20T09:42:08.768Z,15.35
2022-11-20T09:45:05.123Z,16.45
2022-11-20T09:47:53.235Z,16.02
2022-11-20T09:50:41.090Z,15.98
2022-11-20T09:53:27.929Z,16.00
2022-11-20T09:55:57.339Z,30.00
2022-11-20T09:58:33.527Z,17.10
2022-11-20T10:01:12.143Z,19.13
2022-11-20T10:04:05.701Z,18.27
2022-11-20T10:09:23.163Z,17.13
2022-11-20T10:12:18.257Z,18.08
2022-11-20T10:15:09.332Z,17.70
2022-11-20T10:18:00.587Z,15.52
2022-11-20T10:20:53.668Z,16.20
2022-11-20T10:23:38.026Z,16.40
2022-11-20T10:26:23.007Z,16.70
2022-11-20T10:29:11.452Z,17.15
2022-11-20T10:31:43.596Z,15.65
2022-11-20T10:34:31.602Z,16.33
2022-11-20T10:37:04.941Z,16.40
2022-11-20T10:39:50.191Z,16.77
2022-11-20T10:42:32.106Z,17.10
2022-11-20T10:45:23.121Z,16.23
2022-11-20T10:47:50.886Z,16.30
2022-11-20T10:50:23.318Z,15.65
2022-11-20T10:53:06.719Z,15.88
2022-11-20T10:55:54.760Z,15.45
2022-11-20T10:58:46.303Z,15.38
2022-11-20T11:01:19.377Z,16.40
2022-11-20T11:03:47.698Z,15.10
2022-11-20T11:06:42.404Z,15.07
2022-11-20T11:09:16.757Z,14.23
2022-11-20T11:11:44.976Z,14.15
2022-11-20T11:14:17.745Z,13.80
2022-11-20T11:19:26.108Z,13.18
2022-11-20T11:21:58.189Z,11.98
2022-11-20T11:24:46.255Z,13.60
2022-11-20T11:27:19.563Z,13.25
2022-11-20T11:29:48.386Z,11.23
2022-11-20T11:32:23.371Z,11.68
2022-11-20T11:35:10.116Z,11.43
2022-11-20T11:37:42.795Z,12.48
2022-11-20T11:40:23.941Z,11.32
2022-11-20T11:42:59.527Z,11.40
2022-11-20T11:45:27.999Z,10.65
2022-11-20T11:48:01.439Z,10.52
2022-11-20T11:50:33.757Z,10.48
2022-11-20T11:53:13.219Z,11.40
2022-11-20T11:56:04.217Z,10.90
2022-11-20T11:59:00.958Z,11.55
2022-11-20T12:01:45.949Z,11.85
2022-11-20T12:04:46.978Z,10.70
2022-11-20T12:07:45.346Z,10.63
2022-11-20T12:10:24.461Z,10.73
2022-11-20T12:13:09.409Z,11.32
2022-11-20T12:15:37.706Z,10.88
2022-11-20T12:18:15.880Z,11.02
2022-11-20T12:20:58.504Z,10.48
2022-11-20T12:23:36.752Z,11.50
2022-11-20T12:26:15.339Z,11.27
2022-11-20T12:28:54.809Z,10.43
2022-11-20T12:31:44.334Z,11.10
2022-11-20T12:34:43.567Z,10.20
2022-11-20T12:37:46.774Z,9.38
2022-11-20T12:40:51.134Z,9.57
2022-11-20T12:43:44.578Z,10.23
2022-11-20T12:46:28.576Z,10.02
2022-11-20T12:49:18.506Z,10.80
2022-11-20T12:52:08.361Z,9.68
2022-11-20T12:54:51.421Z,9.65
2022-11-20T12:57:38.782Z,10.07
2022-11-20T13:00:17.124Z,10.25
2022-11-20T13:03:16.573Z,10.68
2022-11-20T13:06:16.870Z,16.33
2022-11-20T13:08:56.123Z,9.45
2022-11-20T13:11:35.938Z,10.90
2022-11-20T13:14:17.641Z,10.82
2022-11-20T13:16:56.268Z,10.07
2022-11-20T13:19:32.698Z,9.93
2022-11-20T13:22:01.068Z,11.10
2022-11-20T13:24:33.586Z,11.20
2022-11-20T13:27:05.171Z,14.80
2022-11-20T13:29:37.260Z,10.25
2022-11-20T13:32:22.523Z,12.25
2022-11-20T13:35:02.659Z,11.13
2022-11-20T13:37:35.997Z,10.95
2022-11-20T13:40:15.753Z,11.77
2022-11-20T13:42:53.413Z,12.18
2022-11-20T13:45:28.183Z,10.90
2022-11-20T13:48:02.778Z,12.20
2022-11-20T13:51:04.189Z,11.40
2022-11-20T13:53:56.924Z,10.98
2022-11-20T13:56:45.277Z,10.93
2022-11-20T13:59:41.257Z,11.05
2022-11-20T14:02:20.441Z,10.88
2022-11-20T14:04:52.870Z,10.77
2022-11-20T14:07:25.512Z,11.30
2022-11-20T14:10:01.823Z,10.98
2022-11-20T14:12:36.011Z,10.48
2022-11-20T14:15:07.023Z,11.50
2022-11-20T14:17:39.156Z,10.45
2022-11-20T14:20:14.564Z,9.88
2022-11-20T14:22:57.139Z,10.05
2022-11-20T14:25:32.554Z,10.15
2022-11-20T14:28:02.831Z,9.80
2022-11-20T14:30:55.993Z,10.05
2022-11-20T14:33:26.931Z,10.43
2022-11-20T14:35:59.686Z,9.95
2022-11-20T14:41:17.566Z,10.38
2022-11-20T14:43:49.141Z,9.60
2022-11-20T14:46:17.184Z,10.10
2022-11-20T14:48:58.215Z,10.35
2022-11-20T14:51:33.144Z,10.57
2022-11-20T14:54:17.608Z,10.23
2022-11-20T14:57:08.659Z,9.93
2022-11-20T14:59:36.788Z,10.57
2022-11-20T15:02:10.297Z,10.70
2022-11-20T15:05:04.428Z,10.13
2022-11-20T15:07:36.838Z,10.80
2022-11-20T15:10:07.795Z,11.05
2022-11-20T15:12:39.834Z,11.13
2022-11-20T15:15:13.003Z,11.40
2022-11-20T15:17:45.743Z,11.65
2022-11-20T15:20:17.372Z,10.93
2022-11-20T15:22:45.513Z,10.57
2022-11-20T15:25:16.111Z,11.10
2022-11-20T15:27:48.550Z,10.63
2022-11-20T15:30:20.521Z,10.95
2022-11-20T15:32:48.978Z,11.23
2022-11-20T15:35:19.215Z,11.02
2022-11-20T15:37:47.129Z,11.35
2022-11-20T15:40:15.455Z,11.30
2022-11-20T15:43:05.867Z,10.45
2022-11-20T15:45:43.013Z,11.82
2022-11-20T15:48:15.186Z,12.20
2022-11-20T15:51:10.850Z,11.00
2022-11-20T15:53:41.236Z,11.13
2022-11-20T15:56:15.210Z,11.57
2022-11-20T15:58:43.694Z,10.90
2022-11-20T16:01:14.596Z,10.98
2022-11-20T16:03:45.763Z,15.85
2022-11-20T16:06:14.274Z,12.75
2022-11-20T16:08:42.458Z,12.50
2022-11-20T16:11:17.167Z,12.50
2022-11-20T16:14:00.720Z,11.75
2022-11-20T16:16:33.114Z,11.38
2022-11-20T16:19:01.685Z,11.02
2022-11-20T16:21:32.621Z,11.27
2022-11-20T16:24:02.252Z,11.50
2022-11-20T16:26:30.279Z,11.25
2022-11-20T16:29:00.898Z,10.95
2022-11-20T16:31:29.293Z,11.70
2022-11-20T16:33:59.386Z,11.43
2022-11-20T16:36:31.181Z,11.65
2022-11-20T16:39:01.362Z,11.15
2022-11-20T16:41:32.108Z,11.73
2022-11-20T16:44:02.258Z,11.55
2022-11-20T16:46:32.356Z,10.88
2022-11-20T16:49:02.747Z,10.93
2022-11-20T16:51:32.965Z,11.55
2022-11-20T16:54:04.145Z,10.95
2022-11-20T16:56:32.090Z,11.85
2022-11-20T16:59:04.453Z,14.98
2022-11-20T17:01:33.006Z,15.18
2022-11-20T17:04:03.125Z,15.32
2022-11-20T17:06:34.825Z,15.27
2022-11-20T17:09:02.872Z,16.45
2022-11-20T17:11:30.820Z,16.20
2022-11-20T17:14:03.889Z,17.20
2022-11-20T17:19:03.357Z,15.43
2022-11-20T17:21:36.557Z,16.98
2022-11-20T17:24:10.245Z,16.38
2022-11-20T17:26:41.068Z,15.68
2022-11-20T17:29:13.362Z,15.98
2022-11-20T17:31:43.763Z,15.57
2022-11-20T17:34:16.452Z,15.82
2022-11-20T17:36:48.892Z,14.95
2022-11-20T17:39:18.005Z,15.80
2022-11-20T17:42:12.258Z,16.05
2022-11-20T17:44:43.976Z,15.52
2022-11-20T17:47:14.518Z,15.60
2022-11-20T17:49:42.599Z,14.68
2022-11-20T17:52:13.611Z,13.57
2022-11-20T17:54:47.456Z,15.00
2022-11-20T17:57:33.804Z,14.88
2022-11-20T18:00:01.830Z,13.88
2022-11-20T18:02:37.085Z,14.93
2022-11-20T18:05:07.309Z,13.02
2022-11-20T18:07:41.291Z,13.35
2022-11-20T18:10:10.135Z,13.55
2022-11-20T18:12:39.063Z,12.40
2022-11-20T18:15:07.334Z,12.90
2022-11-20T18:17:37.529Z,12.30
2022-11-20T18:20:27.863Z,12.20
2022-11-20T18:22:53.695Z,13.27
2022-11-20T18:25:22.433Z,12.55
2022-11-20T18:27:50.340Z,12.65
2022-11-20T18:30:18.259Z,13.45
2022-11-20T18:32:46.431Z,12.93
2022-11-20T18:35:15.722Z,11.82
2022-11-20T18:37:43.913Z,11.73
2022-11-20T18:40:12.670Z,11.35
2022-11-20T18:42:56.627Z,11.65
2022-11-20T18:45:29.243Z,10.52
2022-11-20T18:48:00.296Z,10.55
2022-11-20T18:50:29.109Z,10.15
2022-11-20T18:52:57.133Z,10.75
2022-11-20T18:55:26.283Z,10.45
2022-11-20T18:57:56.755Z,9.70
2022-11-20T19:00:24.895Z,9.40
2022-11-20T19:02:54.955Z,10.18
2022-11-20T19:05:23.176Z,9.30
2022-11-20T19:07:52.425Z,9.60
2022-11-20T19:10:24.646Z,9.80
2022-11-20T19:12:53.021Z,8.70
2022-11-20T19:15:21.099Z,8.25
2022-11-20T19:17:48.986Z,8.13
2022-11-20T19:20:16.986Z,9.40
2022-11-20T19:22:44.988Z,8.38
2022-11-20T19:25:21.534Z,8.65
2022-11-20T19:27:49.870Z,8.65
2022-11-20T19:30:18.201Z,8.32
2022-11-20T19:32:46.102Z,8.90
2022-11-20T19:35:14.009Z,8.80
2022-11-20T19:37:46.395Z,10.40
2022-11-20T19:40:14.407Z,9.63
2022-11-20T19:42:42.650Z,9.60
2022-11-20T19:45:12.671Z,10.23
2022-11-20T19:50:28.329Z,10.48
2022-11-20T19:52:59.216Z,11.25
2022-11-20T19:55:27.299Z,10.77
2022-11-20T19:57:58.703Z,10.60
2022-11-20T20:00:33.002Z,11.65
2022-11-20T20:03:01.440Z,11.98
2022-11-20T20:05:29.606Z,12.23
2022-11-20T20:08:04.528Z,12.10
2022-11-20T20:10:32.728Z,10.98
2022-11-20T20:13:01.132Z,12.93
2022-11-20T20:15:32.819Z,12.43
2022-11-20T20:18:03.214Z,12.07
2022-11-20T20:20:32.345Z,12.88
2022-11-20T20:23:02.865Z,12.73
2022-11-20T20:25:31.810Z,11.90
2022-11-20T20:28:00.543Z,13.40
2022-11-20T20:30:29.400Z,13.13
2022-11-20T20:32:57.520Z,13.80
2022-11-20T20:35:25.421Z,13.73
2022-11-20T20:37:54.601Z,14.57
2022-11-20T20:40:22.974Z,14.98
2022-11-20T20:42:50.956Z,15.40
2022-11-20T20:45:18.774Z,15.65
2022-11-20T20:47:50.483Z,15.63
2022-11-20T20:50:18.623Z,16.05
2022-11-20T20:52:46.984Z,15.80
2022-11-20T20:55:15.068Z,16.15
2022-11-20T20:57:43.112Z,16.02
2022-11-20T21:00:11.758Z,16.23
2022-11-20T21:02:39.824Z,15.65
2022-11-20T21:05:08.046Z,16.92
2022-11-20T21:07:55.817Z,16.90
2022-11-20T21:10:24.208Z,28.40
2022-11-20T21:12:52.233Z,15.95
2022-11-20T21:15:20.272Z,14.32
2022-11-20T21:17:49.063Z,12.57
2022-11-20T21:20:32.214Z,11.48
2022-11-20T21:23:00.265Z,11.98
2022-11-20T21:25:28.005Z,12.20
2022-11-20T21:27:57.372Z,11.55
2022-11-20T21:30:25.259Z,11.68
2022-11-20T21:32:52.915Z,11.32
2022-11-20T21:35:20.674Z,12.32
2022-11-20T21:37:49.544Z,13.20
2022-11-20T21:40:20.426Z,13.00
2022-11-20T21:42:48.319Z,13.27
2022-11-20T21:45:16.360Z,13.15
2022-11-20T21:47:44.242Z,14.07
2022-11-20T21:50:12.078Z,13.65
2022-11-20T21:52:40.048Z,14.00
2022-11-20T21:55:08.179Z,15.75
2022-11-20T21:57:36.739Z,16.38
2022-11-20T22:00:05.439Z,15.02
2022-11-20T22:02:35.671Z,15.38
2022-11-20T22:05:03.465Z,15.60
2022-11-20T22:07:31.596Z,15.80
2022-11-20T22:09:59.310Z,14.48
2022-11-20T22:12:27.156Z,14.13
2022-11-20T22:14:55.078Z,13.52
2022-11-20T22:17:42.703Z,13.77
2022-11-20T22:20:11.494Z,12.90
2022-11-20T22:22:40.865Z,12.60
2022-11-20T22:25:08.916Z,12.82
2022-11-20T22:27:36.735Z,13.55
2022-11-20T22:30:04.676Z,14.25
2022-11-20T22:32:32.630Z,13.82
2022-11-20T22:35:00.613Z,12.75
2022-11-20T22:37:28.357Z,12.60
2022-11-20T22:39:56.132Z,14.30
2022-11-20T22:42:24.200Z,13.90
2022-11-20T22:44:51.993Z,12.57
2022-11-20T22:47:19.734Z,13.05
2022-11-20T22:49:47.422Z,12.85
2022-11-20T22:52:15.179Z,12.18
2022-11-20T22:54:42.898Z,12.57
2022-11-20T22:57:10.694Z,13.57
2022-11-20T22:59:38.530Z,13.00
2022-11-20T23:02:06.162Z,13.60
2022-11-20T23:04:34.585Z,17.45
2022-11-20T23:07:02.459Z,13.38
2022-11-20T23:09:30.246Z,12.77
2022-11-20T23:11:58.124Z,12.48
2022-11-20T23:14:27.863Z,12.57
2022-11-20T23:16:56.038Z,13.27
2022-11-20T23:19:24.252Z,12.32
2022-11-20T23:21:52.107Z,13.45
2022-11-20T23:24:20.083Z,12.70
2022-11-20T23:26:48.094Z,13.50
2022-11-20T23:29:15.972Z,13.75
2022-11-20T23:31:43.773Z,12.95
2022-11-20T23:34:12.742Z,13.05
2022-11-20T23:36:40.580Z,13.07
2022-11-20T23:39:08.772Z,12.52
2022-11-20T23:41:36.218Z,13.35
2022-11-20T23:44:03.958Z,12.43
2022-11-20T23:46:31.667Z,13.07
2022-11-20T23:48:59.459Z,13.52
2022-11-20T23:51:29.810Z,13.05
2022-11-20T23:54:01.782Z,12.80
2022-11-20T23:56:32.136Z,13.40
2022-11-20T23:58:59.840Z,13.57
